Time;durP1;ratioP1;P1;durP2;ratioP2;P2;SDS_P1;SDS_P2;PMS_P1;PMS_P2;Temp;Humidity;BMP_temperature;BMP_pressure;BME280_temperature;BME280_humidity;BME280_pressure;Samples;Min_cycle;Max_cycle;Signal;HPM_P1;HPM_P2
2020/12/18 00:00:40;;;;;;;50.05;37.75;;;;;;;10.16;74.63;101614.00;4975651;28;97469;-64
2020/12/18 00:03:06;;;;;;;48.55;36.47;;;;;;;10.13;74.47;101613.25;4974618;28;96561;-63
2020/12/18 00:05:33;;;;;;;57.03;36.92;;;;;;;10.14;74.96;101617.56;4975276;28;96746;-64
2020/12/18 00:08:00;;;;;;;53.30;36.55;;;;;;;10.16;74.82;101608.78;4971332;28;98480;-64
2020/12/18 00:10:27;;;;;;;47.53;34.22;;;;;;;10.21;74.85;101608.69;4965191;28;98580;-64
2020/12/18 00:12:54;;;;;;;45.13;33.47;;;;;;;10.19;74.79;101619.16;4965474;28;96988;-64
2020/12/18 00:15:26;;;;;;;47.55;36.38;;;;;;;10.22;75.08;101616.44;4962688;28;96913;-64
2020/12/18 00:17:52;;;;;;;48.45;35.83;;;;;;;10.13;75.59;101613.25;4963353;28;98802;-64
2020/12/18 00:20:19;;;;;;;48.60;35.38;;;;;;;10.16;75.58;101607.94;4962918;28;98390;-65
2020/12/18 00:22:46;;;;;;;46.78;36.05;;;;;;;10.11;75.94;101615.88;4961114;28;96915;-65
2020/12/18 00:25:13;;;;;;;53.95;36.80;;;;;;;10.21;75.25;101609.53;4960740;28;96909;-65
2020/12/18 00:27:42;;;;;;;45.63;33.55;;;;;;;10.13;75.97;101619.31;4958446;28;99368;-65
2020/12/18 00:30:10;;;;;;;47.08;34.40;;;;;;;10.12;75.79;101611.50;4964423;28;98521;-65
2020/12/18 00:32:39;;;;;;;48.90;35.00;;;;;;;10.12;76.15;101621.94;4964483;28;97544;-64
2020/12/18 00:35:06;;;;;;;43.70;32.08;;;;;;;10.10;76.30;101615.94;4964891;28;97604;-65
2020/12/18 00:37:32;;;;;;;47.05;33.17;;;;;;;10.09;76.39;101620.28;4959222;28;98556;-63
2020/12/18 00:39:59;;;;;;;45.67;32.20;;;;;;;10.16;76.02;101623.56;4970568;28;98606;-74
2020/12/18 00:42:28;;;;;;;46.20;30.92;;;;;;;10.19;75.76;101628.72;4960296;28;97640;-76
2020/12/18 00:44:55;;;;;;;42.47;31.50;;;;;;;10.17;75.94;101625.28;4964890;28;98933;-65
2020/12/18 00:47:21;;;;;;;48.10;32.88;;;;;;;10.13;76.26;101621.06;4973908;28;98459;-65
2020/12/18 00:49:48;;;;;;;41.33;32.55;;;;;;;10.11;76.46;101628.91;4973815;28;97371;-65
2020/12/18 00:52:14;;;;;;;48.45;34.33;;;;;;;10.09;76.49;101625.50;4973379;28;96711;-64
2020/12/18 00:54:41;;;;;;;49.03;34.78;;;;;;;10.05;76.68;101628.22;4940393;28;96856;-65
2020/12/18 00:57:10;;;;;;;48.13;34.83;;;;;;;10.02;76.96;101634.38;4952946;28;99778;-65
2020/12/18 00:59:37;;;;;;;44.92;35.55;;;;;;;10.01;77.08;101637.00;4955168;28;98617;-65
2020/12/18 01:02:07;;;;;;;50.40;35.92;;;;;;;10.04;77.04;101636.94;4956588;28;97001;-64
2020/12/18 01:04:34;;;;;;;48.08;36.00;;;;;;;10.01;77.07;101639.59;4973813;28;96650;-65
2020/12/18 01:07:01;;;;;;;52.13;38.15;;;;;;;10.10;76.56;101639.38;4955249;28;99957;-65
2020/12/18 01:09:30;;;;;;;43.60;34.22;;;;;;;10.06;76.82;101640.34;4956417;28;99897;-64
2020/12/18 01:12:03;;;;;;;47.70;35.22;;;;;;;10.02;76.95;101646.53;4974640;28;96987;-65
2020/12/18 01:14:29;;;;;;;51.35;33.75;;;;;;;9.95;76.95;101641.47;4972075;28;97439;-65
2020/12/18 01:16:58;;;;;;;45.22;33.10;;;;;;;9.99;77.16;101650.06;4954236;28;100137;-64
2020/12/18 01:19:25;;;;;;;44.22;33.67;;;;;;;10.02;76.88;101647.41;4953815;28;99889;-65
2020/12/18 01:21:53;;;;;;;44.38;32.25;;;;;;;10.07;76.33;101649.91;4954228;28;96935;-65
2020/12/18 01:24:31;;;;;;;44.85;32.08;;;;;;;10.04;76.46;101642.13;4956006;28;96630;-65
2020/12/18 01:27:00;;;;;;;47.15;32.70;;;;;;;10.05;76.38;101652.50;4952601;28;99587;-65
2020/12/18 01:29:27;;;;;;;43.63;33.67;;;;;;;10.08;76.53;101651.59;4951439;28;99698;-64
2020/12/18 01:31:54;;;;;;;48.72;33.00;;;;;;;10.06;76.63;101666.41;4955942;28;96773;-64
2020/12/18 01:34:21;;;;;;;43.65;32.75;;;;;;;10.05;76.63;101662.09;4956108;28;97686;-64
2020/12/18 01:36:48;;;;;;;40.08;30.70;;;;;;;9.96;77.27;101658.84;4972731;28;98751;-64
2020/12/18 01:39:27;;;;;;;46.47;31.73;;;;;;;10.01;77.05;101660.44;4971921;28;98566;-64
2020/12/18 01:41:54;;;;;;;48.55;34.83;;;;;;;10.02;77.19;101662.19;4953216;28;96975;-64
2020/12/18 01:44:21;;;;;;;44.35;33.75;;;;;;;10.00;77.02;101663.94;4955472;28;96764;-64
2020/12/18 01:46:52;;;;;;;44.60;32.78;;;;;;;10.07;76.66;101671.59;4955428;28;99988;-65
2020/12/18 01:49:19;;;;;;;50.17;34.35;;;;;;;10.07;76.66;101663.78;4955923;28;99777;-64
2020/12/18 01:51:50;;;;;;;48.58;34.38;;;;;;;10.03;76.98;101674.31;4956419;28;96641;-65
2020/12/18 01:54:36;;;;;;;52.63;35.90;;;;;;;9.96;77.38;101666.66;4972619;28;96791;-65
2020/12/18 01:57:02;;;;;;;49.47;35.80;;;;;;;10.02;77.23;101667.38;4939642;28;100033;-65
2020/12/18 01:59:38;;;;;;;53.38;36.55;;;;;;;9.97;77.63;101665.75;4954570;28;99787;-63
2020/12/18 02:02:16;;;;;;;52.67;37.53;;;;;;;9.95;77.95;101661.44;4955621;28;96823;-65
2020/12/18 02:04:51;;;;;;;45.20;35.97;;;;;;;10.05;77.33;101664.69;4940090;28;96729;-65
2020/12/18 02:07:24;;;;;;;48.60;36.42;;;;;;;10.05;76.99;101662.09;4972533;28;97379;-65
2020/12/18 02:10:00;;;;;;;54.22;38.05;;;;;;;10.01;77.40;101660.44;4937873;28;99966;-65
2020/12/18 02:12:33;;;;;;;54.22;36.63;;;;;;;10.05;77.41;101662.94;4954621;28;96625;-64
2020/12/18 02:15:00;;;;;;;55.70;36.90;;;;;;;10.08;77.19;101662.03;4939239;28;97359;-64
2020/12/18 02:17:43;;;;;;;50.72;35.35;;;;;;;10.10;76.96;101660.22;4952477;28;98719;-65
2020/12/18 02:20:09;;;;;;;52.05;35.03;;;;;;;10.11;77.13;101661.91;4939624;28;99931;-64
2020/12/18 02:22:36;;;;;;;49.40;34.90;;;;;;;10.02;77.65;101663.03;4955357;28;96637;-65
2020/12/18 02:25:11;;;;;;;49.03;36.40;;;;;;;9.93;77.75;101664.09;4965933;28;97155;-64
2020/12/18 02:27:39;;;;;;;47.60;34.00;;;;;;;10.04;77.40;101665.59;4972751;28;98513;-64
2020/12/18 02:30:11;;;;;;;44.30;33.58;;;;;;;10.04;77.47;101668.19;4951802;28;100427;-65
2020/12/18 02:32:58;;;;;;;48.10;34.53;;;;;;;9.98;77.52;101662.25;4952872;28;96739;-65
2020/12/18 02:35:25;;;;;;;50.13;37.28;;;;;;;9.83;78.20;101667.81;4948742;28;96980;-64
2020/12/18 02:37:53;;;;;;;46.85;35.20;;;;;;;9.90;78.50;101664.16;4943679;28;99477;-65
2020/12/18 02:40:28;;;;;;;48.60;35.80;;;;;;;9.92;78.31;101661.53;4967759;28;97983;-65
2020/12/18 02:43:14;;;;;;;47.50;35.40;;;;;;;9.96;78.09;101663.19;4956947;28;97556;-65
2020/12/18 02:45:42;;;;;;;48.40;36.38;;;;;;;9.98;78.08;101664.84;4961638;28;100466;-65
2020/12/18 02:48:16;;;;;;;49.38;35.97;;;;;;;9.92;78.10;101657.19;4964748;28;99745;-66
2020/12/18 02:50:51;;;;;;;50.05;35.75;;;;;;;10.07;77.35;101660.31;4962180;28;98756;-65
2020/12/18 02:53:19;;;;;;;46.65;32.25;;;;;;;10.09;77.06;101661.97;4946794;28;96744;-65
2020/12/18 02:56:24;;;;;;;45.42;34.30;;;;;;;10.12;76.77;101653.19;4925575;28;98088;-65
2020/12/18 02:59:17;;;;;;;52.97;38.20;;;;;;;10.05;77.47;101660.34;4929187;28;97375;-64
2020/12/18 03:01:46;;;;;;;43.60;31.58;;;;;;;10.03;77.58;101658.69;4960189;28;98526;-65
2020/12/18 03:04:13;;;;;;;48.33;32.63;;;;;;;10.04;77.49;101663.84;4948655;28;97219;-65
2020/12/18 03:06:57;;;;;;;42.85;33.20;;;;;;;10.01;77.97;101663.91;4959697;28;97878;-65
2020/12/18 03:09:24;;;;;;;47.65;34.45;;;;;;;10.03;77.50;101671.69;4958542;28;98470;-65
2020/12/18 03:11:50;;;;;;;48.75;34.53;;;;;;;9.95;77.89;101654.50;4966638;28;98395;-65
2020/12/18 03:14:17;;;;;;;47.17;33.53;;;;;;;9.90;77.87;101669.38;4963047;28;97320;-65
2020/12/18 03:16:53;;;;;;;47.67;34.22;;;;;;;9.88;78.51;101665.13;4951065;28;99265;-65
2020/12/18 03:19:36;;;;;;;47.85;32.40;;;;;;;9.83;78.84;101667.81;4951778;28;100320;-65
2020/12/18 03:22:12;;;;;;;44.60;31.20;;;;;;;9.94;78.36;101662.34;4942289;28;99929;-65
2020/12/18 03:24:59;;;;;;;47.40;32.53;;;;;;;9.92;78.25;101661.53;4964886;28;96766;-65
2020/12/18 03:27:46;;;;;;;51.30;31.75;;;;;;;9.90;78.13;101671.97;4951462;28;96748;-65
2020/12/18 03:30:12;;;;;;;36.78;28.50;;;;;;;9.88;78.54;101663.34;4965913;28;99610;-65
2020/12/18 03:32:40;;;;;;;45.65;28.98;;;;;;;9.97;77.79;101668.34;4950934;28;99132;-65
2020/12/18 03:35:13;;;;;;;43.83;28.67;;;;;;;9.92;78.36;101662.41;4964274;28;96692;-65
2020/12/18 03:37:40;;;;;;;45.53;32.78;;;;;;;9.91;78.70;101660.69;4949956;28;96933;-65
2020/12/18 03:40:10;;;;;;;44.08;31.13;;;;;;;9.91;78.54;101663.28;4967139;28;100444;-65
2020/12/18 03:42:43;;;;;;;44.55;32.28;;;;;;;9.98;78.26;101659.63;4923838;28;101359;-66
2020/12/18 03:45:09;;;;;;;45.13;32.55;;;;;;;9.87;78.32;101663.41;4951433;28;97485;-65
2020/12/18 03:48:04;;;;;;;47.50;34.53;;;;;;;9.86;78.57;101654.75;4964249;28;96900;-64
2020/12/18 03:50:53;;;;;;;41.88;31.08;;;;;;;9.93;78.29;101663.25;4961955;28;99602;-65
2020/12/18 03:53:24;;;;;;;51.20;34.78;;;;;;;9.77;78.38;101662.78;4955550;28;100075;-65
2020/12/18 03:56:04;;;;;;;43.20;29.73;;;;;;;9.76;78.45;101670.63;4949111;28;97363;-64
2020/12/18 03:58:49;;;;;;;40.72;31.42;;;;;;;9.82;78.36;101662.66;4962642;28;97087;-64
2020/12/18 04:01:24;;;;;;;48.80;33.63;;;;;;;9.92;77.84;101659.78;4960669;28;99782;-65
2020/12/18 04:03:51;;;;;;;43.10;31.27;;;;;;;9.91;77.75;101658.09;4944110;28;100074;-65
2020/12/18 04:06:17;;;;;;;39.45;28.70;;;;;;;9.98;77.24;101662.25;4948680;28;98884;-64
2020/12/18 04:08:45;;;;;;;44.03;29.50;;;;;;;9.95;77.51;101656.25;4945498;28;97595;-66
2020/12/18 04:11:16;;;;;;;43.47;33.17;;;;;;;9.97;77.78;101657.94;4946428;28;100093;-65
2020/12/18 04:14:10;;;;;;;41.23;31.27;;;;;;;9.86;78.29;101654.75;4943137;28;98064;-68
2020/12/18 04:16:49;;;;;;;38.72;30.17;;;;;;;9.84;78.18;101653.91;4950190;28;96713;-65
2020/12/18 04:19:18;;;;;;;41.25;30.70;;;;;;;9.75;78.71;101659.34;4950206;28;98048;-67
2020/12/18 04:21:45;;;;;;;40.75;29.20;;;;;;;9.83;78.59;101665.22;4950252;28;100114;-69
2020/12/18 04:24:37;;;;;;;43.20;30.75;;;;;;;9.84;78.55;101661.72;4963018;28;99454;-67
2020/12/18 04:27:05;;;;;;;46.25;32.90;;;;;;;9.86;78.25;101657.34;4948309;28;97038;-69
2020/12/18 04:29:32;;;;;;;41.88;29.52;;;;;;;9.97;77.83;101659.69;4949559;28;98063;-65
2020/12/18 04:31:59;;;;;;;44.85;31.77;;;;;;;9.83;78.33;101670.44;4955224;28;99935;-67
2020/12/18 04:34:25;;;;;;;40.88;29.80;;;;;;;9.84;78.76;101666.06;4949272;28;100606;-66
2020/12/18 04:37:08;;;;;;;42.88;32.35;;;;;;;9.85;78.37;101663.41;4953829;28;96618;-66
2020/12/18 04:40:00;;;;;;;43.92;32.85;;;;;;;9.87;78.25;101666.00;4942577;28;97212;-66
2020/12/18 04:42:33;;;;;;;37.88;28.40;;;;;;;9.86;78.35;101672.97;4961444;28;99834;-66
2020/12/18 04:45:04;;;;;;;37.25;29.27;;;;;;;9.96;77.86;101665.78;4956631;28;100130;-64
2020/12/18 04:47:46;;;;;;;43.40;31.30;;;;;;;9.88;78.17;101665.97;4950411;28;99285;-67
2020/12/18 04:50:13;;;;;;;40.22;29.67;;;;;;;9.86;78.58;101670.38;4940013;28;97822;-66
2020/12/18 04:52:55;;;;;;;41.78;29.33;;;;;;;9.77;78.94;101672.34;4954623;28;97973;-66
2020/12/18 04:55:27;;;;;;;43.88;31.52;;;;;;;9.82;78.82;101678.28;4953862;28;100007;-67
2020/12/18 04:58:16;;;;;;;40.33;31.70;;;;;;;9.83;78.94;101673.03;4969952;28;96701;-66
2020/12/18 05:00:45;;;;;;;40.95;31.67;;;;;;;9.83;78.79;101680.00;4937252;28;100633;-67
2020/12/18 05:03:37;;;;;;;38.45;29.33;;;;;;;9.72;79.31;101675.03;4953718;28;98362;-66
2020/12/18 05:06:07;;;;;;;43.88;30.55;;;;;;;9.78;78.80;101674.88;4922586;28;100416;-65
2020/12/18 05:08:35;;;;;;;43.22;30.90;;;;;;;9.80;78.99;101678.34;4955798;28;98172;-65
2020/12/18 05:11:19;;;;;;;43.25;30.20;;;;;;;9.87;78.47;101679.03;4956076;28;96793;-66
2020/12/18 05:13:51;;;;;;;41.10;29.25;;;;;;;9.83;78.95;101687.81;4958471;28;98660;-66
2020/12/18 05:16:23;;;;;;;39.35;29.83;;;;;;;9.80;79.01;101688.75;4959372;28;98635;-66
2020/12/18 05:19:06;;;;;;;41.05;29.98;;;;;;;9.81;78.93;101682.66;4952512;28;96594;-66
2020/12/18 05:22:01;;;;;;;40.88;29.83;;;;;;;9.87;78.66;101685.09;4955889;28;96717;-66
2020/12/18 05:24:47;;;;;;;41.15;31.10;;;;;;;9.79;79.01;101686.16;4954314;28;99873;-66
2020/12/18 05:27:14;;;;;;;43.63;32.38;;;;;;;9.77;79.18;101691.41;4935663;28;98563;-66
2020/12/18 05:29:41;;;;;;;40.17;28.17;;;;;;;9.80;79.16;101696.56;4950011;28;97099;-65
2020/12/18 05:32:36;;;;;;;41.22;28.20;;;;;;;9.80;79.15;101698.28;4951312;28;96664;-65
2020/12/18 05:35:13;;;;;;;40.40;29.13;;;;;;;9.80;79.13;101696.56;4954528;28;99844;-67
2020/12/18 05:38:10;;;;;;;38.50;28.95;;;;;;;9.85;78.89;101696.44;4954823;28;98253;-66
2020/12/18 05:41:06;;;;;;;42.80;29.77;;;;;;;9.85;78.53;101694.69;4969434;28;97339;-65
2020/12/18 05:43:49;;;;;;;39.88;29.58;;;;;;;9.78;79.09;101689.66;4953319;28;96614;-66
2020/12/18 05:47:06;;;;;;;38.72;27.00;;;;;;;9.84;78.50;101695.56;4913016;28;97457;-65
2020/12/18 05:49:38;;;;;;;40.28;29.60;;;;;;;9.85;78.46;101699.03;4926976;28;99601;-65
2020/12/18 05:52:21;;;;;;;33.95;26.15;;;;;;;9.91;78.29;101702.38;4959996;28;96670;-65
2020/12/18 05:55:02;;;;;;;32.65;25.38;;;;;;;9.87;78.51;101697.28;4955768;28;96688;-66
2020/12/18 05:57:36;;;;;;;;;;;;;;;9.82;78.49;101694.78;4956338;28;99766;-64
2020/12/18 06:00:07;;;;;;;34.67;26.42;;;;;;;9.96;78.02;101697.06;4952487;28;99800;-64
2020/12/18 06:02:58;;;;;;;35.38;27.17;;;;;;;9.84;78.11;101706.00;4954832;28;98517;-66
2020/12/18 06:05:35;;;;;;;38.45;26.60;;;;;;;9.89;77.92;101700.69;4954728;28;96817;-65
2020/12/18 06:08:17;;;;;;;30.65;22.70;;;;;;;9.96;77.59;101705.72;4954389;28;99528;-66
2020/12/18 06:10:54;;;;;;;30.63;23.17;;;;;;;9.92;77.84;101706.69;4955593;28;99639;-65
2020/12/18 06:13:41;;;;;;;30.38;22.63;;;;;;;9.95;77.45;101708.34;4933858;28;96914;-65
2020/12/18 06:16:13;;;;;;;30.02;22.40;;;;;;;9.91;77.53;101696.31;4939914;28;96663;-66
2020/12/18 06:18:50;;;;;;;29.75;22.45;;;;;;;9.96;77.59;101699.66;4926661;28;100092;-66
2020/12/18 06:21:27;;;;;;;30.30;23.20;;;;;;;9.97;77.26;101702.22;4940865;28;98642;-66
2020/12/18 06:23:54;;;;;;;32.78;21.95;;;;;;;9.95;77.26;101703.13;4953530;28;96764;-67
2020/12/18 06:26:53;;;;;;;33.25;23.38;;;;;;;9.84;77.88;101711.19;4952278;28;98145;-64
2020/12/18 06:29:46;;;;;;;29.70;23.90;;;;;;;9.89;77.95;101709.34;4941695;28;99800;-65
2020/12/18 06:32:31;;;;;;;27.20;22.85;;;;;;;9.85;77.96;101702.50;4971499;28;97751;-64
2020/12/18 06:35:30;;;;;;;33.92;24.70;;;;;;;9.87;78.14;101707.69;4959904;28;96793;-63
2020/12/18 06:38:23;;;;;;;29.80;22.20;;;;;;;9.81;78.25;101706.09;4955920;28;96989;-63
2020/12/18 06:41:37;;;;;;;31.15;22.92;;;;;;;9.86;77.86;101709.44;4971893;28;98051;-65
2020/12/18 06:44:33;;;;;;;27.60;22.17;;;;;;;9.77;78.58;101712.25;4955465;28;97267;-65
2020/12/18 06:47:26;;;;;;;30.08;23.08;;;;;;;9.84;78.86;101707.75;4948922;28;96716;-63
2020/12/18 06:50:11;;;;;;;29.33;24.05;;;;;;;9.79;78.81;101707.84;4974874;28;97022;-67
2020/12/18 06:53:09;;;;;;;33.50;26.13;;;;;;;9.77;78.89;101716.59;4967751;28;97205;-66
2020/12/18 06:55:48;;;;;;;29.42;22.65;;;;;;;9.83;78.75;101721.66;4955666;28;100306;-66
2020/12/18 06:58:37;;;;;;;30.13;23.27;;;;;;;9.88;78.51;101719.81;4965520;28;97001;-67
2020/12/18 07:01:03;;;;;;;33.38;23.30;;;;;;;9.93;78.28;101710.13;4974174;28;96939;-66
2020/12/18 07:03:31;;;;;;;33.83;25.10;;;;;;;9.92;78.41;101718.84;4974180;28;98417;-66
2020/12/18 07:06:03;;;;;;;32.05;23.13;;;;;;;9.95;78.07;101713.56;4974890;28;98955;-67
2020/12/18 07:08:31;;;;;;;34.38;23.98;;;;;;;9.86;78.53;101719.84;4975011;28;96539;-72
2020/12/18 07:11:05;;;;;;;29.27;22.55;;;;;;;9.97;78.41;101717.84;4973576;28;96733;-66
2020/12/18 07:13:32;;;;;;;30.00;23.67;;;;;;;10.02;77.89;101716.88;4972949;28;98849;-68
2020/12/18 07:16:05;;;;;;;29.85;22.17;;;;;;;9.98;77.93;101714.34;4957821;28;98469;-68
2020/12/18 07:18:34;;;;;;;32.38;23.30;;;;;;;10.05;77.96;101714.19;4976079;28;97376;-68
2020/12/18 07:21:04;;;;;;;28.58;22.95;;;;;;;10.05;78.00;101717.66;4975616;28;96671;-68
2020/12/18 07:23:34;;;;;;;27.35;21.38;;;;;;;10.03;78.16;101716.84;4969464;28;98659;-69
2020/12/18 07:26:02;;;;;;;30.38;23.17;;;;;;;10.01;78.02;101717.75;4975249;28;98595;-68
2020/12/18 07:28:29;;;;;;;30.20;24.70;;;;;;;10.11;77.97;101714.88;4975618;28;96794;-66
2020/12/18 07:30:56;;;;;;;32.55;24.52;;;;;;;10.06;77.96;101715.91;4975556;28;96754;-67
2020/12/18 07:33:22;;;;;;;31.33;24.10;;;;;;;10.07;78.34;101712.41;4970030;28;98624;-67
2020/12/18 07:35:53;;;;;;;31.35;25.70;;;;;;;9.99;78.51;101710.00;4975649;28;98591;-67
2020/12/18 07:38:27;;;;;;;39.58;28.05;;;;;;;10.03;78.21;101710.78;4975074;28;97058;-65
2020/12/18 07:40:58;;;;;;;32.30;24.85;;;;;;;10.01;78.79;101713.41;4975329;28;96729;-67
2020/12/18 07:43:26;;;;;;;32.53;23.75;;;;;;;10.08;78.37;101711.53;4973915;28;98686;-68
2020/12/18 07:45:56;;;;;;;31.45;24.85;;;;;;;10.11;78.11;101708.81;4974743;28;98560;-67
2020/12/18 07:48:29;;;;;;;39.22;26.52;;;;;;;10.09;77.89;101708.03;4972714;28;97064;-68
2020/12/18 07:51:09;;;;;;;31.73;25.38;;;;;;;10.04;78.33;101717.69;4973384;28;97073;-66
2020/12/18 07:53:38;;;;;;;33.88;25.67;;;;;;;10.11;78.41;101721.84;4974581;28;98512;-67
2020/12/18 07:56:05;;;;;;;32.75;25.23;;;;;;;10.15;78.27;101715.69;4974910;28;98479;-65
2020/12/18 07:58:32;;;;;;;33.67;27.42;;;;;;;10.13;78.46;101717.47;4972796;28;96701;-65
2020/12/18 08:01:08;;;;;;;37.20;26.15;;;;;;;10.18;78.41;101720.81;4973861;28;96814;-69
2020/12/18 08:03:37;;;;;;;35.47;27.30;;;;;;;10.25;77.90;101717.19;4974570;28;98606;-65
2020/12/18 08:06:04;;;;;;;34.75;25.42;;;;;;;10.19;78.02;101723.38;4973484;28;98624;-67
2020/12/18 08:08:32;;;;;;;35.65;25.75;;;;;;;10.17;78.33;101724.31;4974863;28;96930;-68
2020/12/18 08:11:01;;;;;;;34.90;25.65;;;;;;;10.20;78.24;101724.25;4972344;28;97001;-68
2020/12/18 08:13:28;;;;;;;31.95;25.65;;;;;;;10.23;78.22;101729.38;4958927;28;99303;-64
2020/12/18 08:16:11;;;;;;;37.22;26.05;;;;;;;10.33;77.37;101725.66;4959940;28;98493;-67
2020/12/18 08:18:38;;;;;;;35.22;26.23;;;;;;;10.31;77.59;101727.47;4967938;28;96653;-68
2020/12/18 08:21:05;;;;;;;36.67;28.83;;;;;;;10.30;77.52;101720.53;4968510;28;96769;-67
2020/12/18 08:23:33;;;;;;;38.20;28.75;;;;;;;10.33;77.63;101725.66;4958610;28;98593;-67
2020/12/18 08:25:59;;;;;;;35.30;28.27;;;;;;;10.25;78.01;101727.63;4926728;28;98501;-68
2020/12/18 08:28:26;;;;;;;36.72;26.00;;;;;;;10.23;78.21;101737.22;4926383;28;96704;-67
2020/12/18 08:30:54;;;;;;;33.97;26.83;;;;;;;10.14;78.63;101734.81;4938036;28;96989;-68
2020/12/18 08:33:20;;;;;;;35.25;26.17;;;;;;;10.26;78.95;101731.06;4962511;28;98450;-68
2020/12/18 08:35:47;;;;;;;31.67;25.80;;;;;;;10.14;78.75;101737.44;4954957;28;98590;-68
2020/12/18 08:38:13;;;;;;;35.47;26.60;;;;;;;10.16;79.07;101740.84;4940668;28;99700;-68
2020/12/18 08:40:42;;;;;;;35.72;26.35;;;;;;;10.09;78.07;101734.94;4945287;28;98215;-68
2020/12/18 08:43:10;;;;;;;41.13;26.95;;;;;;;10.16;78.67;101740.84;4960953;28;98880;-67
2020/12/18 08:45:45;;;;;;;30.92;25.92;;;;;;;10.00;78.83;101731.69;4961291;28;101140;-68
2020/12/18 08:48:11;;;;;;;33.67;24.98;;;;;;;10.08;78.85;101740.19;4960121;28;97016;-68
2020/12/18 08:50:38;;;;;;;33.38;25.80;;;;;;;10.13;78.31;101743.53;4948162;28;97464;-68
2020/12/18 08:53:13;;;;;;;30.38;24.58;;;;;;;10.22;79.02;101744.13;4958528;28;98845;-66
2020/12/18 08:55:40;;;;;;;33.45;26.17;;;;;;;10.16;79.17;101744.28;4968176;28;98632;-68
2020/12/18 08:58:10;;;;;;;30.50;24.02;;;;;;;10.18;78.48;101747.75;4961331;28;98275;-68
2020/12/18 09:00:37;;;;;;;32.63;23.00;;;;;;;10.29;77.82;101760.53;4960865;28;96816;-68
2020/12/18 09:03:04;;;;;;;32.25;22.67;;;;;;;10.41;77.48;101754.16;4962338;28;98632;-68
2020/12/18 09:05:34;;;;;;;31.40;23.08;;;;;;;10.41;77.51;101754.16;4942709;28;99282;-68
2020/12/18 09:08:01;;;;;;;29.63;23.15;;;;;;;10.33;76.85;101751.72;4962275;28;97339;-69
2020/12/18 09:10:41;;;;;;;28.42;23.33;;;;;;;10.37;76.58;101758.59;4958225;28;98488;-69
2020/12/18 09:13:15;;;;;;;30.60;24.17;;;;;;;10.44;76.18;101751.50;4942942;28;100189;-68
2020/12/18 09:15:42;;;;;;;28.63;23.23;;;;;;;10.45;76.50;101754.03;4959746;28;98620;-69
2020/12/18 09:18:10;;;;;;;28.50;21.40;;;;;;;10.49;76.47;101758.28;4963298;28;96952;-68
2020/12/18 09:20:41;;;;;;;30.73;22.90;;;;;;;10.53;76.20;101755.59;4959887;28;99872;-68
2020/12/18 09:23:10;;;;;;;29.67;22.67;;;;;;;10.44;75.99;101754.94;4964042;28;98727;-67
2020/12/18 09:25:42;;;;;;;28.08;21.98;;;;;;;10.51;76.21;101757.41;4959780;28;98535;-68
2020/12/18 09:28:13;;;;;;;27.13;20.98;;;;;;;10.48;76.28;101751.34;4959480;28;99192;-68
2020/12/18 09:30:40;;;;;;;30.10;21.90;;;;;;;10.51;76.46;101760.00;4958277;28;98088;-68
2020/12/18 09:33:10;;;;;;;26.23;20.30;;;;;;;10.51;76.78;101754.78;4934397;28;98542;-68
2020/12/18 09:35:37;;;;;;;26.25;20.17;;;;;;;10.44;76.68;101751.50;4969532;28;98729;-69
2020/12/18 09:38:04;;;;;;;25.17;18.80;;;;;;;10.51;76.46;101747.81;4965386;28;98069;-68
2020/12/18 09:40:30;;;;;;;28.13;20.13;;;;;;;10.61;76.32;101751.03;4966134;28;96875;-68
2020/12/18 09:42:57;;;;;;;22.33;18.50;;;;;;;10.64;76.23;101746.59;4968751;28;98669;-68
2020/12/18 09:45:40;;;;;;;22.58;18.67;;;;;;;10.67;76.58;101737.84;4972418;28;97478;-69
2020/12/18 09:48:06;;;;;;;27.05;20.58;;;;;;;10.74;76.20;101734.16;4960930;28;97925;-68
2020/12/18 09:50:32;;;;;;;24.63;18.98;;;;;;;10.77;76.20;101741.91;4963268;28;97444;-68
2020/12/18 09:52:59;;;;;;;25.90;19.15;;;;;;;10.77;76.28;101743.69;4937956;28;98690;-68
2020/12/18 09:55:25;;;;;;;22.48;17.25;;;;;;;10.83;76.38;101741.75;4955314;28;99225;-68
2020/12/18 09:57:51;;;;;;;23.17;18.88;;;;;;;10.87;76.12;101740.78;4961524;28;97844;-68
2020/12/18 10:00:17;;;;;;;23.95;18.65;;;;;;;10.92;76.29;101735.41;4959980;28;97537;-69
2020/12/18 10:02:44;;;;;;;24.05;18.65;;;;;;;10.88;76.20;101742.47;4941202;28;98670;-68
2020/12/18 10:05:10;;;;;;;22.48;17.10;;;;;;;10.96;75.75;101740.50;4947337;28;98532;-68
2020/12/18 10:07:37;;;;;;;23.23;18.42;;;;;;;11.02;75.50;101750.78;4960227;28;97481;-68
2020/12/18 10:10:04;;;;;;;20.70;16.90;;;;;;;11.06;75.35;101742.84;4957859;28;96934;-68
2020/12/18 10:12:30;;;;;;;19.63;15.98;;;;;;;11.02;75.41;101742.97;4960776;28;99434;-69
2020/12/18 10:14:56;;;;;;;18.48;15.27;;;;;;;11.06;75.15;101732.41;4960835;28;98492;-69
2020/12/18 10:17:23;;;;;;;19.20;15.55;;;;;;;11.05;74.54;101736.78;4971889;28;96753;-68
2020/12/18 10:19:51;;;;;;;20.30;16.98;;;;;;;10.92;75.09;101730.19;4962131;28;96774;-68
2020/12/18 10:22:18;;;;;;;21.80;17.33;;;;;;;10.96;74.94;101737.88;4959482;28;98670;-68
2020/12/18 10:24:44;;;;;;;20.05;16.63;;;;;;;11.06;74.96;101733.28;4959121;28;99356;-68
2020/12/18 10:27:11;;;;;;;20.67;18.17;;;;;;;10.96;74.67;101731.81;4962106;28;97996;-68
2020/12/18 10:29:37;;;;;;;21.02;17.05;;;;;;;10.98;74.31;101720.44;4958260;28;99502;-68
2020/12/18 10:32:04;;;;;;;21.15;17.67;;;;;;;11.06;74.28;101721.97;4961732;28;98671;-68
2020/12/18 10:34:30;;;;;;;20.15;17.27;;;;;;;11.14;73.89;101720.88;4957474;28;98370;-69
2020/12/18 10:36:56;;;;;;;21.38;18.05;;;;;;;11.09;74.14;101722.75;4962161;28;97697;-68
2020/12/18 10:39:23;;;;;;;22.33;17.75;;;;;;;11.18;73.12;101716.41;4961527;28;99926;-67
2020/12/18 10:41:50;;;;;;;25.73;19.80;;;;;;;11.16;73.30;101718.22;4958856;28;98535;-68
2020/12/18 10:44:17;;;;;;;23.33;18.25;;;;;;;11.19;73.60;101718.13;4965297;28;98619;-67
2020/12/18 10:46:45;;;;;;;24.98;19.25;;;;;;;11.14;73.45;101709.59;4961243;28;101191;-68
2020/12/18 10:49:11;;;;;;;24.92;20.15;;;;;;;11.10;73.48;101708.81;4962183;28;96877;-67
2020/12/18 10:51:38;;;;;;;25.05;20.38;;;;;;;11.25;72.62;101703.13;4961105;28;98636;-67
2020/12/18 10:54:04;;;;;;;32.60;23.40;;;;;;;11.32;72.16;101708.19;4962171;28;99625;-65
2020/12/18 10:56:31;;;;;;;24.55;19.58;;;;;;;11.31;72.48;101707.31;4971610;28;96988;-67
2020/12/18 10:58:57;;;;;;;29.40;20.58;;;;;;;11.37;72.25;101696.69;4961423;28;96644;-68
2020/12/18 11:01:24;;;;;;;25.08;21.35;;;;;;;11.18;73.30;101705.97;4958265;28;98707;-68
2020/12/18 11:03:50;;;;;;;23.13;19.63;;;;;;;11.35;72.29;101702.88;4961784;28;99016;-67
2020/12/18 11:06:17;;;;;;;23.48;19.05;;;;;;;11.34;72.33;101702.00;4958558;28;97033;-67
2020/12/18 11:08:43;;;;;;;28.90;20.95;;;;;;;11.28;72.38;101702.19;4960714;28;99974;-67
2020/12/18 11:11:14;;;;;;;26.55;22.48;;;;;;;11.34;72.04;101702.00;4940319;28;98764;-68
2020/12/18 11:13:40;;;;;;;28.08;22.13;;;;;;;11.36;72.30;101691.53;4963782;28;98654;-67
2020/12/18 11:16:08;;;;;;;27.77;24.83;;;;;;;11.25;72.65;101703.13;4967901;28;96963;-66
2020/12/18 11:18:34;;;;;;;34.92;25.27;;;;;;;11.28;72.64;101696.97;4957304;28;97966;-67
2020/12/18 11:21:02;;;;;;;30.40;23.67;;;;;;;11.39;71.90;101694.88;4961608;28;99256;-66
2020/12/18 11:23:28;;;;;;;34.47;26.05;;;;;;;11.40;71.25;101695.72;4961488;28;98584;-70
2020/12/18 11:25:55;;;;;;;34.90;26.30;;;;;;;11.40;70.89;101696.63;4941916;28;97428;-67
2020/12/18 11:28:21;;;;;;;34.33;27.30;;;;;;;11.33;71.25;101691.59;4945860;28;97831;-67
2020/12/18 11:30:48;;;;;;;34.20;27.63;;;;;;;11.36;71.17;101688.91;4941063;28;99413;-68
2020/12/18 11:33:14;;;;;;;35.28;27.98;;;;;;;11.36;71.57;101688.91;4963796;28;98681;-67
2020/12/18 11:35:40;;;;;;;36.17;26.27;;;;;;;11.21;71.29;101685.84;4963184;28;96614;-68